Leonardsville, New York
Current Conditions -  °F | °C
As of 2:53 PM on Friday 24 Oct 2014 (Local Time) from KRME Reporting Station
Few Clouds Few Clouds  
Wind Chill: 61°   Ceiling: Unl
Heat Index: 61°   Visibility: 10mi
Dew Point: 43°   Wind: 14mph
Humidity: 52%   Direction: 280°W
Pressure: 29.85"   Gusts: NA
Location:  42.81°N, 75.25°W
Report Text: KRME 241853Z 28012KT 10SM FEW055 FEW065 16/06 A2985 RMK AO2 SLP106 T01610061
Loading
Personal Weather Stations






























Interactive Weather Map
Tropical Storm Tracking
New forecast layout! Learn more

10-Day Weather Forecast

Advertisements
Track Severe Weather on mobile